createdAt,value
2022-11-29T00:00:16.517Z,100813.75
2022-11-29T00:03:18.879Z,100815.22
2022-11-29T00:06:30.170Z,100825.94
2022-11-29T00:09:32.464Z,100814.91
2022-11-29T00:12:34.727Z,100806.50
2022-11-29T00:15:37.908Z,100806.66
2022-11-29T00:18:40.189Z,100795.47
2022-11-29T00:21:42.470Z,100783.78
2022-11-29T00:24:44.906Z,100791.84
2022-11-29T00:27:47.333Z,100782.13
2022-11-29T00:30:49.692Z,100786.25
2022-11-29T00:33:52.604Z,100787.25
2022-11-29T00:36:54.944Z,100793.16
2022-11-29T00:39:57.343Z,100765.50
2022-11-29T00:42:59.601Z,100772.09
2022-11-29T00:46:04.313Z,100779.50
2022-11-29T00:49:06.626Z,100764.84
2022-11-29T00:52:08.903Z,100772.41
2022-11-29T00:55:11.245Z,100762.88
2022-11-29T00:58:13.655Z,100775.03
2022-11-29T01:01:16.364Z,100775.38
2022-11-29T01:04:18.975Z,100764.03
2022-11-29T01:07:21.225Z,100757.91
2022-11-29T01:10:25.561Z,100765.97
2022-11-29T01:13:27.864Z,100766.47
2022-11-29T01:16:33.798Z,100760.06
2022-11-29T01:19:38.024Z,100761.22
2022-11-29T01:22:40.369Z,100768.97
2022-11-29T01:25:42.673Z,100760.72
2022-11-29T01:28:50.704Z,100754.13
2022-11-29T01:31:53.081Z,100770.25
2022-11-29T01:34:55.372Z,100759.88
2022-11-29T01:37:57.709Z,100768.63
2022-11-29T01:41:06.650Z,100764.34
2022-11-29T01:44:12.015Z,100766.50
2022-11-29T01:47:14.319Z,100763.19
2022-11-29T01:50:16.965Z,100764.50
2022-11-29T01:53:20.424Z,100750.19
2022-11-29T01:56:23.267Z,100763.53
2022-11-29T01:59:27.523Z,100755.13
2022-11-29T02:02:38.776Z,100761.19
2022-11-29T02:05:43.647Z,100766.16
2022-11-29T02:08:46.088Z,100751.66
2022-11-29T02:12:14.536Z,100762.84
2022-11-29T02:15:29.430Z,100767.47
2022-11-29T02:18:47.169Z,100771.09
2022-11-29T02:21:53.454Z,100756.28
2022-11-29T02:25:11.027Z,100769.78
2022-11-29T02:28:48.850Z,100776.19
2022-11-29T02:32:09.693Z,100775.03
2022-11-29T02:35:35.745Z,100779.00
2022-11-29T02:38:59.726Z,100782.28
2022-11-29T02:42:29.951Z,100780.97
2022-11-29T02:46:00.871Z,100773.06
2022-11-29T02:49:12.223Z,100787.41
2022-11-29T02:52:25.454Z,100768.13
2022-11-29T02:55:33.958Z,100781.81
2022-11-29T02:58:39.192Z,100781.47
2022-11-29T03:02:17.183Z,100775.38
2022-11-29T03:05:45.096Z,100775.69
2022-11-29T03:08:57.203Z,100779.00
2022-11-29T03:12:19.740Z,100787.88
2022-11-29T03:15:36.610Z,100781.97
2022-11-29T03:18:38.865Z,100786.22
2022-11-29T03:21:55.771Z,100783.94
2022-11-29T03:25:22.755Z,100792.16
2022-11-29T03:28:42.012Z,100782.28
2022-11-29T03:32:16.729Z,100787.56
2022-11-29T03:35:24.551Z,100789.50
2022-11-29T03:38:57.171Z,100777.97
2022-11-29T03:42:06.227Z,100790.50
2022-11-29T03:45:15.677Z,100796.28
2022-11-29T03:48:22.722Z,100784.94
2022-11-29T03:51:56.568Z,100800.72
2022-11-29T03:55:23.949Z,100797.78
2022-11-29T03:58:34.980Z,100806.16
2022-11-29T04:02:09.521Z,100804.69
2022-11-29T04:05:33.310Z,100811.59
2022-11-29T04:08:38.570Z,100807.34
2022-11-29T04:12:07.337Z,100814.22
2022-11-29T04:15:34.242Z,100819.78
2022-11-29T04:18:51.725Z,100819.16
2022-11-29T04:22:19.067Z,100813.06
2022-11-29T04:25:27.229Z,100819.84
2022-11-29T04:28:48.971Z,100803.88
2022-11-29T04:32:20.417Z,100820.84
2022-11-29T04:35:50.683Z,100825.28
2022-11-29T04:39:32.478Z,100821.31
2022-11-29T04:42:49.666Z,100817.78
2022-11-29T04:46:21.645Z,100820.09
2022-11-29T04:49:33.036Z,100829.78
2022-11-29T04:52:38.493Z,100825.53
2022-11-29T04:55:54.970Z,100827.34
2022-11-29T04:59:05.048Z,100840.53
2022-11-29T05:02:32.595Z,100828.00
2022-11-29T05:05:55.023Z,100844.78
2022-11-29T05:08:57.269Z,100844.44
2022-11-29T05:12:17.715Z,100851.19
2022-11-29T05:15:45.237Z,100851.69
2022-11-29T05:19:29.175Z,100856.78
2022-11-29T05:22:58.762Z,100850.97
2022-11-29T05:26:13.259Z,100848.31
2022-11-29T05:29:21.911Z,100849.84
2022-11-29T05:32:45.563Z,100853.50
2022-11-29T05:36:17.138Z,100848.59
2022-11-29T05:43:02.410Z,100848.16
2022-11-29T05:46:12.898Z,100831.38
2022-11-29T05:49:27.090Z,100844.88
2022-11-29T05:52:32.310Z,100850.31
2022-11-29T05:55:48.389Z,100843.56
2022-11-29T05:58:54.664Z,100857.09
2022-11-29T06:02:36.077Z,100855.09
2022-11-29T06:05:47.561Z,100863.19
2022-11-29T06:09:00.502Z,100863.19
2022-11-29T06:12:06.871Z,100871.75
2022-11-29T06:15:18.253Z,100863.50
2022-11-29T06:18:46.440Z,100864.34
2022-11-29T06:22:11.414Z,100867.59
2022-11-29T06:25:27.704Z,100866.63
2022-11-29T06:28:51.286Z,100865.28
2022-11-29T06:32:03.699Z,100866.66
2022-11-29T06:35:24.196Z,100873.22
2022-11-29T06:38:29.668Z,100855.28
2022-11-29T06:41:32.323Z,100879.34
2022-11-29T06:44:34.900Z,100884.09
2022-11-29T06:47:50.725Z,100894.66
2022-11-29T06:51:21.395Z,100896.16
2022-11-29T06:54:47.204Z,100894.47
2022-11-29T06:58:04.929Z,100884.91
2022-11-29T07:01:29.100Z,100894.78
2022-11-29T07:04:45.719Z,100888.69
2022-11-29T07:07:48.963Z,100889.34
2022-11-29T07:10:54.075Z,100897.28
2022-11-29T07:13:56.703Z,100881.75
2022-11-29T07:17:15.639Z,100902.38
2022-11-29T07:20:39.944Z,100897.75
2022-11-29T07:23:42.269Z,100900.34
2022-11-29T07:26:59.732Z,100900.31
2022-11-29T07:30:16.275Z,100905.31
2022-11-29T07:33:53.945Z,100899.47
2022-11-29T07:37:14.583Z,100897.34
2022-11-29T07:40:37.781Z,100896.13
2022-11-29T07:44:01.524Z,100896.47
2022-11-29T07:47:03.889Z,100900.13
2022-11-29T07:50:06.717Z,100902.78
2022-11-29T07:53:16.927Z,100904.31
2022-11-29T07:56:19.165Z,100911.06
2022-11-29T07:59:21.547Z,100907.97
2022-11-29T08:02:30.877Z,100907.50
2022-11-29T08:05:33.254Z,100892.00
2022-11-29T08:08:40.609Z,100888.91
2022-11-29T08:11:48.973Z,100902.88
2022-11-29T08:14:51.207Z,100901.56
2022-11-29T08:17:53.451Z,100902.22
2022-11-29T08:20:55.710Z,100898.13
2022-11-29T08:23:58.008Z,100895.97
2022-11-29T08:27:00.264Z,100896.31
2022-11-29T08:30:03.103Z,100901.59
2022-11-29T08:33:05.565Z,100906.19
2022-11-29T08:36:18.996Z,100891.03
2022-11-29T08:39:21.375Z,100897.94
2022-11-29T08:42:23.891Z,100900.25
2022-11-29T08:45:26.288Z,100910.66
2022-11-29T08:48:30.892Z,100896.13
2022-11-29T08:51:33.157Z,100898.28
2022-11-29T08:54:35.348Z,100892.34
2022-11-29T08:57:41.127Z,100909.16
2022-11-29T09:00:46.543Z,100899.09
2022-11-29T09:04:03.084Z,100896.16
2022-11-29T09:07:05.338Z,100893.50
2022-11-29T09:10:09.043Z,100890.38
2022-11-29T09:13:12.263Z,100888.72
2022-11-29T09:16:20.538Z,100896.47
2022-11-29T09:19:23.109Z,100897.31
2022-11-29T09:22:25.475Z,100887.91
2022-11-29T09:25:27.876Z,100891.88
2022-11-29T09:28:30.550Z,100884.94
2022-11-29T09:31:33.743Z,100893.97
2022-11-29T09:34:36.179Z,100874.72
2022-11-29T09:37:42.479Z,100886.03
2022-11-29T09:40:54.260Z,100883.56
2022-11-29T09:44:27.522Z,100890.28
2022-11-29T09:48:03.721Z,100893.44
2022-11-29T09:51:18.381Z,100892.66
2022-11-29T09:54:23.642Z,100888.97
2022-11-29T09:57:27.280Z,100876.94
2022-11-29T10:00:31.233Z,100886.97
2022-11-29T10:03:45.249Z,100871.44
2022-11-29T10:06:57.209Z,100869.03
2022-11-29T10:10:03.898Z,100863.75
2022-11-29T10:13:28.186Z,100870.38
2022-11-29T10:16:43.536Z,100839.47
2022-11-29T10:19:49.537Z,100846.25
2022-11-29T10:22:56.168Z,100844.34
2022-11-29T10:25:58.953Z,100858.00
2022-11-29T10:29:01.547Z,100841.41
2022-11-29T10:32:12.352Z,100845.94
2022-11-29T10:35:16.899Z,100846.41
2022-11-29T10:38:34.764Z,100852.84
2022-11-29T10:41:37.103Z,100845.28
2022-11-29T10:44:39.372Z,100850.91
2022-11-29T10:47:41.721Z,100840.28
2022-11-29T10:50:45.897Z,100841.53
2022-11-29T10:53:49.183Z,100828.47
2022-11-29T10:56:52.264Z,100832.53
2022-11-29T11:00:11.738Z,100816.31
2022-11-29T11:03:29.885Z,100831.81
2022-11-29T11:06:52.805Z,100824.69
2022-11-29T11:09:56.963Z,100831.81
2022-11-29T11:13:19.890Z,100824.41
2022-11-29T11:16:25.868Z,100820.91
2022-11-29T11:19:35.326Z,100822.88
2022-11-29T11:22:40.295Z,100827.50
2022-11-29T11:25:42.611Z,100835.50
2022-11-29T11:29:02.314Z,100835.03
2022-11-29T11:32:05.729Z,100831.72
2022-11-29T11:35:22.304Z,100836.19
2022-11-29T11:38:24.615Z,100826.16
2022-11-29T11:41:48.364Z,100822.25
2022-11-29T11:44:53.438Z,100836.72
2022-11-29T11:47:58.500Z,100833.31
2022-11-29T11:51:01.689Z,100834.28
2022-11-29T11:54:04.059Z,100827.06
2022-11-29T11:57:17.149Z,100825.31
2022-11-29T12:01:03.453Z,100832.34
2022-11-29T12:04:33.985Z,100834.34
2022-11-29T12:08:07.474Z,100824.34
2022-11-29T12:11:08.105Z,100836.03
2022-11-29T12:14:18.887Z,100821.06
2022-11-29T12:17:49.209Z,100815.69
2022-11-29T12:20:56.345Z,100829.56
2022-11-29T12:24:21.692Z,100822.63
2022-11-29T12:27:24.051Z,100826.91
2022-11-29T12:30:26.357Z,100811.13
2022-11-29T12:33:38.766Z,100813.56
2022-11-29T12:37:26.030Z,100814.69
2022-11-29T12:40:34.689Z,100801.47
2022-11-29T12:44:04.084Z,100813.91
2022-11-29T12:47:38.337Z,100803.41
2022-11-29T12:51:02.167Z,100810.72
2022-11-29T12:54:38.101Z,100817.31
2022-11-29T12:57:54.325Z,100815.56
2022-11-29T13:01:19.748Z,100801.63
2022-11-29T13:04:40.812Z,100811.50
2022-11-29T13:08:04.806Z,100813.63
2022-11-29T13:11:31.580Z,100796.28
2022-11-29T13:14:49.719Z,100811.16
2022-11-29T13:17:55.082Z,100806.63
2022-11-29T13:21:15.955Z,100807.78
2022-11-29T13:24:26.152Z,100810.63
2022-11-29T13:27:34.865Z,100799.03
2022-11-29T13:30:38.755Z,100808.91
2022-11-29T13:33:59.342Z,100813.91
2022-11-29T13:37:07.576Z,100817.53
2022-11-29T13:40:22.496Z,100803.97
2022-11-29T13:43:33.860Z,100814.91
2022-11-29T13:46:39.230Z,100809.94
2022-11-29T13:50:04.505Z,100820.09
2022-11-29T13:53:19.917Z,100816.06
2022-11-29T13:56:32.797Z,100823.16
2022-11-29T13:59:40.549Z,100802.88
2022-11-29T14:02:48.338Z,100820.22
2022-11-29T14:05:51.584Z,100828.72
2022-11-29T14:12:35.894Z,100814.53
2022-11-29T14:15:38.505Z,100827.88
2022-11-29T14:19:10.195Z,100826.75
2022-11-29T14:22:20.861Z,100814.19
2022-11-29T14:25:50.669Z,100819.59
2022-11-29T14:28:47.364Z,100808.13
2022-11-29T14:31:52.015Z,100817.78
2022-11-29T14:35:12.543Z,100814.75
2022-11-29T14:38:31.162Z,100819.06
2022-11-29T14:41:54.494Z,100826.72
2022-11-29T14:45:04.706Z,100840.69
2022-11-29T14:48:25.641Z,100822.53
2022-11-29T14:51:30.768Z,100823.84
2022-11-29T14:54:33.831Z,100809.38
2022-11-29T14:57:48.293Z,100818.34
2022-11-29T15:04:27.513Z,100799.13
2022-11-29T15:07:30.857Z,100828.19
2022-11-29T15:10:36.585Z,100809.84
2022-11-29T15:13:45.802Z,100822.09
2022-11-29T15:17:04.797Z,100817.47
2022-11-29T15:20:48.474Z,100835.00
2022-11-29T15:23:58.832Z,100817.19
2022-11-29T15:27:02.743Z,100818.19
2022-11-29T15:30:34.673Z,100809.94
2022-11-29T15:33:39.807Z,100808.44
2022-11-29T15:36:43.920Z,100816.19
2022-11-29T15:39:46.169Z,100806.94
2022-11-29T15:43:02.666Z,100811.22
2022-11-29T15:46:05.107Z,100803.09
2022-11-29T15:49:28.060Z,100813.50
2022-11-29T15:52:33.910Z,100823.25
2022-11-29T15:55:36.446Z,100811.09
2022-11-29T15:58:39.024Z,100810.25
2022-11-29T16:01:43.257Z,100809.56
2022-11-29T16:04:47.385Z,100821.78
2022-11-29T16:07:53.733Z,100824.78
2022-11-29T16:10:56.295Z,100824.63
2022-11-29T16:14:12.820Z,100822.16
2022-11-29T16:17:15.406Z,100823.47
2022-11-29T16:20:18.788Z,100832.97
2022-11-29T16:23:21.107Z,100822.59
2022-11-29T16:26:24.789Z,100834.63
2022-11-29T16:29:30.417Z,100827.72
2022-11-29T16:32:35.503Z,100837.94
2022-11-29T16:35:37.848Z,100834.28
2022-11-29T16:38:46.186Z,100844.50
2022-11-29T16:42:26.182Z,100841.53
2022-11-29T16:45:48.945Z,100862.44
2022-11-29T16:48:52.776Z,100852.06
2022-11-29T16:51:55.067Z,100843.81
2022-11-29T16:54:57.480Z,100839.72
2022-11-29T16:57:59.868Z,100845.81
2022-11-29T17:01:19.689Z,100875.66
2022-11-29T17:04:24.362Z,100869.19
2022-11-29T17:07:30.208Z,100873.84
2022-11-29T17:10:32.791Z,100872.34
2022-11-29T17:13:35.027Z,100873.53
2022-11-29T17:16:37.366Z,100870.56
2022-11-29T17:19:39.649Z,100877.31
2022-11-29T17:22:42.045Z,100873.19
2022-11-29T17:25:44.440Z,100862.97
2022-11-29T17:28:48.353Z,100869.34
2022-11-29T17:31:50.831Z,100863.91
2022-11-29T17:34:53.283Z,100864.41
2022-11-29T17:37:55.584Z,100880.06
2022-11-29T17:40:58.050Z,100869.19
2022-11-29T17:44:00.913Z,100876.44
2022-11-29T17:47:03.186Z,100873.63
2022-11-29T17:50:06.104Z,100871.00
2022-11-29T17:53:08.382Z,100866.88
2022-11-29T17:56:12.807Z,100876.28
2022-11-29T17:59:15.184Z,100864.72
2022-11-29T18:02:17.563Z,100874.34
2022-11-29T18:05:20.137Z,100863.59
2022-11-29T18:08:22.379Z,100857.59
2022-11-29T18:11:27.988Z,100863.84
2022-11-29T18:14:31.113Z,100842.56
2022-11-29T18:17:33.532Z,100841.22
2022-11-29T18:20:35.802Z,100854.75
2022-11-29T18:23:41.227Z,100859.00
2022-11-29T18:26:43.893Z,100866.59
2022-11-29T18:29:46.382Z,100869.03
2022-11-29T18:32:48.884Z,100869.19
2022-11-29T18:35:51.473Z,100886.50
2022-11-29T18:39:05.035Z,100888.13
2022-11-29T18:42:07.390Z,100879.19
2022-11-29T18:45:10.023Z,100874.94
2022-11-29T18:48:12.486Z,100875.56
2022-11-29T18:51:16.930Z,100882.47
2022-11-29T18:54:19.634Z,100877.88
2022-11-29T18:57:21.983Z,100872.25
2022-11-29T19:00:24.592Z,100874.75
2022-11-29T19:03:27.220Z,100872.59
2022-11-29T19:06:39.030Z,100873.78
2022-11-29T19:09:42.311Z,100882.81
2022-11-29T19:12:44.676Z,100875.22
2022-11-29T19:15:54.240Z,100883.44
2022-11-29T19:18:58.018Z,100884.50
2022-11-29T19:22:00.675Z,100876.94
2022-11-29T19:25:02.959Z,100886.84
2022-11-29T19:28:10.694Z,100878.91
2022-11-29T19:31:17.879Z,100880.84
2022-11-29T19:34:20.365Z,100878.91
2022-11-29T19:37:22.681Z,100881.22
2022-11-29T19:40:25.109Z,100885.81
2022-11-29T19:43:27.678Z,100884.06
2022-11-29T19:46:41.557Z,100897.06
2022-11-29T19:49:46.755Z,100886.50
2022-11-29T19:52:49.434Z,100880.25
2022-11-29T19:55:51.707Z,100884.06
2022-11-29T19:58:54.364Z,100897.66
2022-11-29T20:01:59.477Z,100883.59
2022-11-29T20:05:01.939Z,100873.53
2022-11-29T20:08:04.393Z,100885.56
2022-11-29T20:11:18.277Z,100871.72
2022-11-29T20:14:20.725Z,100874.38
2022-11-29T20:17:22.981Z,100872.06
2022-11-29T20:20:25.319Z,100862.81
2022-11-29T20:23:27.618Z,100876.38
2022-11-29T20:26:31.268Z,100869.44
2022-11-29T20:29:33.824Z,100871.09
2022-11-29T20:32:36.448Z,100878.56
2022-11-29T20:35:39.075Z,100870.16
2022-11-29T20:38:51.377Z,100883.00
2022-11-29T20:41:53.621Z,100874.25
2022-11-29T20:44:57.404Z,100877.38
2022-11-29T20:48:11.390Z,100874.75
2022-11-29T20:51:13.915Z,100873.78
2022-11-29T20:54:17.303Z,100864.22
2022-11-29T20:57:19.576Z,100866.88
2022-11-29T21:00:22.189Z,100866.38
2022-11-29T21:03:24.973Z,100872.50
2022-11-29T21:06:27.279Z,100860.50
2022-11-29T21:09:29.596Z,100864.41
2022-11-29T21:12:32.369Z,100869.84
2022-11-29T21:15:34.908Z,100863.28
2022-11-29T21:18:37.737Z,100879.41
2022-11-29T21:21:58.794Z,100879.91
2022-11-29T21:25:22.440Z,100878.75
2022-11-29T21:28:29.275Z,100866.22
2022-11-29T21:31:31.928Z,100874.00
2022-11-29T21:34:34.932Z,100873.50
2022-11-29T21:37:37.718Z,100871.66
2022-11-29T21:40:40.081Z,100876.09
2022-11-29T21:44:05.469Z,100869.19
2022-11-29T21:47:04.924Z,100887.00
2022-11-29T21:50:07.772Z,100886.31
2022-11-29T21:53:10.191Z,100881.53
2022-11-29T21:56:12.996Z,100888.00
2022-11-29T21:59:15.256Z,100884.38
2022-11-29T22:02:17.665Z,100895.88
2022-11-29T22:05:20.024Z,100884.53
2022-11-29T22:08:22.283Z,100883.34
2022-11-29T22:11:36.698Z,100870.16
2022-11-29T22:14:40.402Z,100876.03
2022-11-29T22:17:42.679Z,100881.34
2022-11-29T22:20:47.311Z,100884.16
2022-11-29T22:23:49.781Z,100884.47
2022-11-29T22:26:52.605Z,100890.25
2022-11-29T22:29:54.990Z,100867.50
2022-11-29T22:32:57.311Z,100869.47
2022-11-29T22:36:07.517Z,100880.19
2022-11-29T22:39:09.988Z,100873.59
2022-11-29T22:42:12.253Z,100865.84
2022-11-29T22:45:14.572Z,100870.94
2022-11-29T22:48:16.828Z,100849.22
2022-11-29T22:51:20.957Z,100862.03
2022-11-29T22:54:23.245Z,100867.19
2022-11-29T22:57:25.486Z,100845.75
2022-11-29T23:00:27.755Z,100855.00
2022-11-29T23:03:33.128Z,100845.09
2022-11-29T23:06:41.420Z,100842.72
2022-11-29T23:09:43.738Z,100842.53
2022-11-29T23:12:47.660Z,100858.88
2022-11-29T23:15:50.060Z,100833.19
2022-11-29T23:18:53.619Z,100851.13
2022-11-29T23:21:56.572Z,100853.97
2022-11-29T23:24:58.861Z,100847.34
2022-11-29T23:28:01.162Z,100848.00
2022-11-29T23:31:03.620Z,100848.69
2022-11-29T23:34:05.943Z,100837.44
2022-11-29T23:37:08.217Z,100840.53
2022-11-29T23:40:10.959Z,100838.91
2022-11-29T23:43:13.302Z,100838.72
2022-11-29T23:46:18.200Z,100846.63
2022-11-29T23:49:20.500Z,100838.13
2022-11-29T23:52:22.903Z,100847.00
2022-11-29T23:55:25.756Z,100845.22
2022-11-29T23:58:28.967Z,100851.97
